createdAt,value
2023-03-23T15:58:12.003Z,85788.28
2023-03-23T16:00:40.308Z,85787.75
2023-03-23T16:03:11.633Z,85809.09
2023-03-23T16:05:38.873Z,85808.41
2023-03-23T16:08:06.373Z,85801.59
2023-03-23T16:10:33.491Z,85806.94
2023-03-23T16:13:00.514Z,85816.66
2023-03-23T16:15:27.632Z,85801.59
2023-03-23T16:17:54.561Z,85742.59
2023-03-23T16:20:23.727Z,85812.47
2023-03-23T16:22:52.263Z,85797.44
2023-03-23T16:25:19.966Z,85817.38
2023-03-23T16:27:52.480Z,85811.19
2023-03-23T16:30:26.062Z,85812.59
2023-03-23T16:32:56.156Z,85802.34
2023-03-23T16:35:26.328Z,85812.66
2023-03-23T16:38:08.374Z,85793.50
2023-03-23T16:40:37.366Z,85767.53
2023-03-23T16:43:08.388Z,85799.66
2023-03-23T16:45:38.296Z,85822.47
2023-03-23T16:48:06.385Z,85816.25
2023-03-23T16:50:34.779Z,85811.59
2023-03-23T16:53:02.123Z,85789.66
2023-03-23T16:55:31.489Z,85811.75
2023-03-23T16:58:13.196Z,85807.84
2023-03-23T17:00:43.960Z,85810.00
2023-03-23T17:03:11.581Z,85797.72
2023-03-23T17:05:38.704Z,85763.53
2023-03-23T17:08:06.222Z,85817.75
2023-03-23T17:10:33.474Z,85817.88
2023-03-23T17:13:01.191Z,85786.31
2023-03-23T17:15:28.836Z,85830.25
2023-03-23T17:17:56.112Z,85826.16
2023-03-23T17:20:23.790Z,85837.13
2023-03-23T17:22:51.166Z,85832.38
2023-03-23T17:25:18.094Z,85837.91
2023-03-23T17:27:45.049Z,85837.97
2023-03-23T17:30:12.701Z,85809.16
2023-03-23T17:32:39.962Z,85807.13
2023-03-23T17:35:07.631Z,85812.66
2023-03-23T17:37:35.134Z,85829.91
2023-03-23T17:40:02.380Z,85852.72
2023-03-23T17:42:30.028Z,85846.53
2023-03-23T17:44:57.025Z,85862.44
2023-03-23T17:47:24.254Z,85825.34
2023-03-23T17:49:51.627Z,85859.00
2023-03-23T17:52:18.877Z,85867.97
2023-03-23T17:54:46.020Z,85868.72
2023-03-23T17:57:13.138Z,85832.25
2023-03-23T17:59:40.295Z,85857.69
2023-03-23T18:02:07.718Z,85815.88
2023-03-23T18:04:36.771Z,85844.75
2023-03-23T18:07:04.013Z,85847.50
2023-03-23T18:09:31.308Z,85779.53
2023-03-23T18:11:58.423Z,85853.09
2023-03-23T18:14:25.596Z,85863.34
2023-03-23T18:16:53.437Z,85864.72
2023-03-23T18:19:20.490Z,85873.75
2023-03-23T18:21:47.586Z,85824.28
2023-03-23T18:24:14.838Z,85858.63
2023-03-23T18:26:42.597Z,85873.75
2023-03-23T18:29:09.554Z,85875.16
2023-03-23T18:31:40.227Z,85876.59
2023-03-23T18:34:08.017Z,85876.53
2023-03-23T18:36:35.419Z,85880.75
2023-03-23T18:39:04.096Z,85839.56
2023-03-23T18:41:31.388Z,85849.22
2023-03-23T18:43:58.343Z,85874.00
2023-03-23T18:46:26.924Z,85878.13
2023-03-23T18:48:54.131Z,85878.13
2023-03-23T18:51:21.334Z,85869.91
2023-03-23T18:53:48.470Z,85854.78
2023-03-23T18:56:17.758Z,85863.03
2023-03-23T18:58:45.801Z,85887.13
2023-03-23T19:01:16.440Z,85885.06
2023-03-23T19:03:44.774Z,85897.47
2023-03-23T19:06:23.763Z,85900.22
2023-03-23T19:08:52.311Z,85894.72
2023-03-23T19:11:20.953Z,85872.09
2023-03-23T19:14:00.408Z,85897.50
2023-03-23T19:16:36.218Z,85868.59
2023-03-23T19:19:05.708Z,85897.50
2023-03-23T19:21:32.953Z,85882.38
2023-03-23T19:24:01.425Z,85870.03
2023-03-23T19:26:36.905Z,85885.16
2023-03-23T19:31:48.813Z,85863.16
2023-03-23T19:34:17.133Z,85881.72
2023-03-23T19:36:54.490Z,85870.06
2023-03-23T19:39:26.835Z,85898.97
2023-03-23T19:41:53.985Z,85875.59
2023-03-23T19:44:21.201Z,85905.88
2023-03-23T19:46:48.419Z,85866.66
2023-03-23T19:49:16.026Z,85906.56
2023-03-23T19:51:43.094Z,85916.91
2023-03-23T19:54:10.231Z,85843.31
2023-03-23T19:56:38.440Z,85883.88
2023-03-23T19:59:08.101Z,85906.59
2023-03-23T20:01:35.022Z,85899.72
2023-03-23T20:04:05.197Z,85882.53
2023-03-23T20:06:37.700Z,85916.94
2023-03-23T20:09:06.553Z,85885.28
2023-03-23T20:11:34.587Z,85919.03
2023-03-23T20:14:02.181Z,85911.47
2023-03-23T20:16:29.391Z,85926.59
2023-03-23T20:19:00.359Z,85857.13
2023-03-23T20:21:27.641Z,85920.41
2023-03-23T20:23:57.203Z,85875.69
2023-03-23T20:26:37.673Z,85915.59
2023-03-23T20:29:06.968Z,85930.75
2023-03-23T20:31:37.767Z,85905.97
2023-03-23T20:34:11.283Z,85926.63
2023-03-23T20:36:42.364Z,85939.69
2023-03-23T20:39:14.779Z,85944.50
2023-03-23T20:41:43.687Z,85883.28
2023-03-23T20:44:14.287Z,85864.66
2023-03-23T20:46:46.513Z,85935.56
2023-03-23T20:49:14.132Z,85948.59
2023-03-23T20:51:41.683Z,85840.53
2023-03-23T20:54:10.233Z,85870.13
2023-03-23T20:56:37.694Z,85886.66
2023-03-23T20:59:05.929Z,85937.59
2023-03-23T21:01:37.208Z,85917.66
2023-03-23T21:04:04.287Z,85908.66
2023-03-23T21:06:31.544Z,85922.41
2023-03-23T21:08:58.632Z,85925.16
2023-03-23T21:11:27.212Z,85923.09
2023-03-23T21:13:54.526Z,85899.00
2023-03-23T21:16:24.260Z,85948.56
2023-03-23T21:18:51.351Z,85904.47
2023-03-23T21:21:18.612Z,85904.47
2023-03-23T21:23:47.638Z,85940.97
2023-03-23T21:26:17.190Z,85925.13
2023-03-23T21:28:45.416Z,85931.97
2023-03-23T21:31:13.814Z,85934.72
2023-03-23T21:33:41.453Z,85933.38
2023-03-23T21:36:08.629Z,85933.38
2023-03-23T21:38:35.693Z,85937.47
2023-03-23T21:41:08.372Z,85887.25
2023-03-23T21:43:35.440Z,85940.22
2023-03-23T21:46:09.092Z,85933.34
2023-03-23T21:48:41.645Z,85929.22
2023-03-23T21:51:13.634Z,85939.53
2023-03-23T21:53:42.349Z,85941.56
2023-03-23T21:56:11.436Z,85909.88
2023-03-23T21:58:39.092Z,85912.63
2023-03-23T22:01:07.061Z,85919.50
2023-03-23T22:03:35.346Z,85905.00
2023-03-23T22:06:15.205Z,85936.03
2023-03-23T22:08:44.094Z,85936.03
2023-03-23T22:11:14.515Z,85927.72
2023-03-23T22:13:42.525Z,85924.97
2023-03-23T22:16:13.542Z,85923.59
2023-03-23T22:18:43.416Z,85920.88
2023-03-23T22:21:12.227Z,85909.81
2023-03-23T22:23:40.173Z,85894.59
2023-03-23T22:26:09.412Z,85930.50
2023-03-23T22:28:37.198Z,85922.22
2023-03-23T22:31:08.712Z,85931.81
2023-03-23T22:33:37.100Z,85925.66
2023-03-23T22:36:06.836Z,85932.53
2023-03-23T22:38:35.669Z,85918.06
2023-03-23T22:41:04.869Z,85913.88
2023-03-23T22:43:31.883Z,85941.41
2023-03-23T22:45:59.636Z,85931.81
2023-03-23T22:48:28.159Z,85935.91
2023-03-23T22:50:55.565Z,85935.91
2023-03-23T22:53:22.927Z,85922.19
2023-03-23T22:55:53.489Z,85934.47
2023-03-23T22:58:21.092Z,85926.25
2023-03-23T23:00:51.191Z,85890.41
2023-03-23T23:03:18.514Z,85923.50
2023-03-23T23:05:50.323Z,85886.25
2023-03-23T23:08:18.187Z,85922.09
2023-03-23T23:10:48.090Z,85924.81
2023-03-23T23:13:16.107Z,85889.03
2023-03-23T23:15:47.317Z,85917.88
2023-03-23T23:18:15.178Z,85928.94
2023-03-23T23:20:43.544Z,85875.19
2023-03-23T23:23:11.033Z,85917.94
2023-03-23T23:25:38.366Z,85924.09
2023-03-23T23:28:06.679Z,85912.44
2023-03-23T23:30:34.774Z,85876.59
2023-03-23T23:33:01.893Z,85916.53
2023-03-23T23:35:29.315Z,85919.31
2023-03-23T23:37:56.431Z,85864.19
2023-03-23T23:40:23.684Z,85891.06
2023-03-23T23:42:52.604Z,85911.06
2023-03-23T23:45:20.049Z,85889.00
2023-03-23T23:47:47.579Z,85886.22
2023-03-23T23:50:23.132Z,85898.66
2023-03-23T23:52:50.289Z,85879.97
2023-03-23T23:55:18.692Z,85906.16
2023-03-23T23:57:47.911Z,85871.06
